sensor_id;sensor_type;location;lat;lon;timestamp;P1;durP1;ratioP1;P2;durP2;ratioP2
1993;SDS011;998;49.906;10.908;2023-05-07T00:00:24;6.90;;;3.63;;
1993;SDS011;998;49.906;10.908;2023-05-07T00:02:51;3.70;;;2.93;;
1993;SDS011;998;49.906;10.908;2023-05-07T00:05:19;4.90;;;3.57;;
1993;SDS011;998;49.906;10.908;2023-05-07T00:07:46;5.67;;;3.63;;
1993;SDS011;998;49.906;10.908;2023-05-07T00:10:15;4.90;;;3.43;;
1993;SDS011;998;49.906;10.908;2023-05-07T00:12:42;6.03;;;3.87;;
1993;SDS011;998;49.906;10.908;2023-05-07T00:15:10;5.00;;;3.40;;
1993;SDS011;998;49.906;10.908;2023-05-07T00:17:38;5.27;;;3.80;;
1993;SDS011;998;49.906;10.908;2023-05-07T00:20:05;5.70;;;3.80;;
1993;SDS011;998;49.906;10.908;2023-05-07T00:22:33;10.20;;;4.87;;
1993;SDS011;998;49.906;10.908;2023-05-07T00:25:00;8.10;;;3.90;;
1993;SDS011;998;49.906;10.908;2023-05-07T00:27:29;5.93;;;4.20;;
1993;SDS011;998;49.906;10.908;2023-05-07T00:29:57;5.30;;;4.30;;
1993;SDS011;998;49.906;10.908;2023-05-07T00:32:24;5.27;;;3.77;;
1993;SDS011;998;49.906;10.908;2023-05-07T00:34:52;5.30;;;3.90;;
1993;SDS011;998;49.906;10.908;2023-05-07T00:37:19;5.33;;;3.40;;
1993;SDS011;998;49.906;10.908;2023-05-07T00:39:46;5.63;;;3.70;;
1993;SDS011;998;49.906;10.908;2023-05-07T00:42:14;5.10;;;3.60;;
1993;SDS011;998;49.906;10.908;2023-05-07T00:44:42;6.60;;;3.80;;
1993;SDS011;998;49.906;10.908;2023-05-07T00:47:10;4.50;;;3.47;;
1993;SDS011;998;49.906;10.908;2023-05-07T00:49:39;6.17;;;3.67;;
1993;SDS011;998;49.906;10.908;2023-05-07T00:52:08;4.97;;;4.00;;
1993;SDS011;998;49.906;10.908;2023-05-07T00:54:40;4.73;;;3.43;;
1993;SDS011;998;49.906;10.908;2023-05-07T00:57:08;6.63;;;4.10;;
1993;SDS011;998;49.906;10.908;2023-05-07T00:59:36;9.80;;;3.90;;
1993;SDS011;998;49.906;10.908;2023-05-07T01:02:06;5.50;;;4.43;;
1993;SDS011;998;49.906;10.908;2023-05-07T01:04:34;4.70;;;3.63;;
1993;SDS011;998;49.906;10.908;2023-05-07T01:07:01;5.80;;;3.73;;
1993;SDS011;998;49.906;10.908;2023-05-07T01:09:30;5.20;;;4.10;;
1993;SDS011;998;49.906;10.908;2023-05-07T01:11:57;9.20;;;6.57;;
1993;SDS011;998;49.906;10.908;2023-05-07T01:14:25;5.17;;;4.67;;
1993;SDS011;998;49.906;10.908;2023-05-07T01:16:53;5.50;;;4.43;;
1993;SDS011;998;49.906;10.908;2023-05-07T01:19:22;7.53;;;6.30;;
1993;SDS011;998;49.906;10.908;2023-05-07T01:21:49;8.17;;;6.20;;
1993;SDS011;998;49.906;10.908;2023-05-07T01:24:21;12.20;;;6.47;;
1993;SDS011;998;49.906;10.908;2023-05-07T01:26:49;6.13;;;4.70;;
1993;SDS011;998;49.906;10.908;2023-05-07T01:29:16;6.03;;;4.40;;
1993;SDS011;998;49.906;10.908;2023-05-07T01:31:43;7.00;;;4.50;;
1993;SDS011;998;49.906;10.908;2023-05-07T01:34:11;5.60;;;4.50;;
1993;SDS011;998;49.906;10.908;2023-05-07T01:36:41;5.53;;;4.93;;
1993;SDS011;998;49.906;10.908;2023-05-07T01:39:10;6.60;;;4.20;;
1993;SDS011;998;49.906;10.908;2023-05-07T01:41:40;6.10;;;4.40;;
1993;SDS011;998;49.906;10.908;2023-05-07T01:44:08;7.07;;;4.70;;
1993;SDS011;998;49.906;10.908;2023-05-07T01:46:36;4.77;;;3.97;;
1993;SDS011;998;49.906;10.908;2023-05-07T01:49:03;6.97;;;4.60;;
1993;SDS011;998;49.906;10.908;2023-05-07T01:51:31;5.50;;;4.23;;
1993;SDS011;998;49.906;10.908;2023-05-07T01:53:59;5.63;;;3.90;;
1993;SDS011;998;49.906;10.908;2023-05-07T01:56:26;5.27;;;4.10;;
1993;SDS011;998;49.906;10.908;2023-05-07T01:58:55;5.10;;;4.17;;
1993;SDS011;998;49.906;10.908;2023-05-07T02:01:23;5.43;;;4.17;;
1993;SDS011;998;49.906;10.908;2023-05-07T02:03:50;6.03;;;4.07;;
1993;SDS011;998;49.906;10.908;2023-05-07T02:06:17;6.70;;;4.10;;
1993;SDS011;998;49.906;10.908;2023-05-07T02:08:44;7.03;;;4.20;;
1993;SDS011;998;49.906;10.908;2023-05-07T02:11:11;4.40;;;3.50;;
1993;SDS011;998;49.906;10.908;2023-05-07T02:13:38;6.83;;;5.80;;
1993;SDS011;998;49.906;10.908;2023-05-07T02:16:07;5.57;;;4.20;;
1993;SDS011;998;49.906;10.908;2023-05-07T02:18:35;5.87;;;4.17;;
1993;SDS011;998;49.906;10.908;2023-05-07T02:21:03;4.20;;;3.63;;
1993;SDS011;998;49.906;10.908;2023-05-07T02:23:30;6.23;;;4.47;;
1993;SDS011;998;49.906;10.908;2023-05-07T02:25:58;6.33;;;4.33;;
1993;SDS011;998;49.906;10.908;2023-05-07T02:28:25;4.67;;;4.10;;
1993;SDS011;998;49.906;10.908;2023-05-07T02:30:52;7.93;;;5.43;;
1993;SDS011;998;49.906;10.908;2023-05-07T02:33:21;7.47;;;5.60;;
1993;SDS011;998;49.906;10.908;2023-05-07T02:35:49;7.40;;;5.60;;
1993;SDS011;998;49.906;10.908;2023-05-07T02:38:17;9.83;;;7.47;;
1993;SDS011;998;49.906;10.908;2023-05-07T02:40:44;5.57;;;4.57;;
1993;SDS011;998;49.906;10.908;2023-05-07T02:43:12;6.33;;;4.77;;
1993;SDS011;998;49.906;10.908;2023-05-07T02:45:39;6.20;;;5.60;;
1993;SDS011;998;49.906;10.908;2023-05-07T02:48:06;8.83;;;5.00;;
1993;SDS011;998;49.906;10.908;2023-05-07T02:50:35;7.47;;;5.40;;
1993;SDS011;998;49.906;10.908;2023-05-07T02:53:02;5.80;;;5.10;;
1993;SDS011;998;49.906;10.908;2023-05-07T02:55:30;6.40;;;4.67;;
1993;SDS011;998;49.906;10.908;2023-05-07T02:57:57;6.57;;;5.17;;
1993;SDS011;998;49.906;10.908;2023-05-07T03:00:25;7.30;;;5.17;;
1993;SDS011;998;49.906;10.908;2023-05-07T03:02:52;10.90;;;8.00;;
1993;SDS011;998;49.906;10.908;2023-05-07T03:05:20;9.57;;;5.30;;
1993;SDS011;998;49.906;10.908;2023-05-07T03:07:48;5.50;;;4.57;;
1993;SDS011;998;49.906;10.908;2023-05-07T03:10:16;7.80;;;6.10;;
1993;SDS011;998;49.906;10.908;2023-05-07T03:12:43;6.50;;;4.43;;
1993;SDS011;998;49.906;10.908;2023-05-07T03:15:11;6.40;;;5.60;;
1993;SDS011;998;49.906;10.908;2023-05-07T03:17:38;7.17;;;4.50;;
1993;SDS011;998;49.906;10.908;2023-05-07T03:20:06;6.63;;;5.10;;
1993;SDS011;998;49.906;10.908;2023-05-07T03:22:34;6.20;;;5.17;;
1993;SDS011;998;49.906;10.908;2023-05-07T03:25:03;8.83;;;5.10;;
1993;SDS011;998;49.906;10.908;2023-05-07T03:27:31;6.27;;;5.43;;
1993;SDS011;998;49.906;10.908;2023-05-07T03:29:59;5.50;;;4.70;;
1993;SDS011;998;49.906;10.908;2023-05-07T03:32:27;5.97;;;4.70;;
1993;SDS011;998;49.906;10.908;2023-05-07T03:34:54;8.90;;;5.20;;
1993;SDS011;998;49.906;10.908;2023-05-07T03:37:22;5.97;;;4.80;;
1993;SDS011;998;49.906;10.908;2023-05-07T03:39:49;6.13;;;4.97;;
1993;SDS011;998;49.906;10.908;2023-05-07T03:42:18;7.37;;;5.93;;
1993;SDS011;998;49.906;10.908;2023-05-07T03:44:45;7.03;;;5.13;;
1993;SDS011;998;49.906;10.908;2023-05-07T03:47:13;10.70;;;8.50;;
1993;SDS011;998;49.906;10.908;2023-05-07T03:49:40;11.17;;;9.40;;
1993;SDS011;998;49.906;10.908;2023-05-07T03:52:08;9.10;;;7.20;;
1993;SDS011;998;49.906;10.908;2023-05-07T03:54:35;8.27;;;6.27;;
1993;SDS011;998;49.906;10.908;2023-05-07T03:57:02;9.17;;;5.87;;
1993;SDS011;998;49.906;10.908;2023-05-07T03:59:31;7.13;;;6.00;;
1993;SDS011;998;49.906;10.908;2023-05-07T04:01:59;7.07;;;6.20;;
1993;SDS011;998;49.906;10.908;2023-05-07T04:04:26;6.47;;;5.57;;
1993;SDS011;998;49.906;10.908;2023-05-07T04:06:57;11.30;;;8.20;;
1993;SDS011;998;49.906;10.908;2023-05-07T04:09:25;10.77;;;8.27;;
1993;SDS011;998;49.906;10.908;2023-05-07T04:11:53;9.53;;;7.30;;
1993;SDS011;998;49.906;10.908;2023-05-07T04:14:20;9.80;;;7.40;;
1993;SDS011;998;49.906;10.908;2023-05-07T04:16:49;8.43;;;7.30;;
1993;SDS011;998;49.906;10.908;2023-05-07T04:19:16;10.13;;;8.00;;
1993;SDS011;998;49.906;10.908;2023-05-07T04:21:44;12.27;;;7.47;;
1993;SDS011;998;49.906;10.908;2023-05-07T04:24:11;11.70;;;7.50;;
1993;SDS011;998;49.906;10.908;2023-05-07T04:26:39;10.30;;;8.03;;
1993;SDS011;998;49.906;10.908;2023-05-07T04:29:06;14.87;;;9.67;;
1993;SDS011;998;49.906;10.908;2023-05-07T04:31:34;10.67;;;7.70;;
1993;SDS011;998;49.906;10.908;2023-05-07T04:34:02;9.80;;;7.63;;
1993;SDS011;998;49.906;10.908;2023-05-07T04:36:30;8.37;;;7.57;;
1993;SDS011;998;49.906;10.908;2023-05-07T04:38:59;9.07;;;7.00;;
1993;SDS011;998;49.906;10.908;2023-05-07T04:41:26;11.30;;;9.37;;
1993;SDS011;998;49.906;10.908;2023-05-07T04:43:54;8.80;;;7.40;;
1993;SDS011;998;49.906;10.908;2023-05-07T04:46:22;12.17;;;9.13;;
1993;SDS011;998;49.906;10.908;2023-05-07T04:48:50;12.17;;;10.20;;
1993;SDS011;998;49.906;10.908;2023-05-07T04:51:18;12.10;;;10.03;;
1993;SDS011;998;49.906;10.908;2023-05-07T04:53:46;11.27;;;8.97;;
1993;SDS011;998;49.906;10.908;2023-05-07T04:56:13;12.37;;;9.33;;
1993;SDS011;998;49.906;10.908;2023-05-07T04:58:41;16.70;;;11.10;;
1993;SDS011;998;49.906;10.908;2023-05-07T05:01:08;11.63;;;9.40;;
1993;SDS011;998;49.906;10.908;2023-05-07T05:03:36;10.80;;;9.20;;
1993;SDS011;998;49.906;10.908;2023-05-07T05:06:04;12.40;;;9.10;;
1993;SDS011;998;49.906;10.908;2023-05-07T05:08:34;13.80;;;10.47;;
1993;SDS011;998;49.906;10.908;2023-05-07T05:11:01;11.07;;;9.70;;
1993;SDS011;998;49.906;10.908;2023-05-07T05:13:28;12.70;;;10.37;;
1993;SDS011;998;49.906;10.908;2023-05-07T05:15:56;11.33;;;8.80;;
1993;SDS011;998;49.906;10.908;2023-05-07T05:18:24;13.20;;;9.33;;
1993;SDS011;998;49.906;10.908;2023-05-07T05:20:51;13.27;;;9.70;;
1993;SDS011;998;49.906;10.908;2023-05-07T05:23:18;10.77;;;8.63;;
1993;SDS011;998;49.906;10.908;2023-05-07T05:25:47;11.20;;;8.93;;
1993;SDS011;998;49.906;10.908;2023-05-07T05:28:15;10.40;;;8.93;;
1993;SDS011;998;49.906;10.908;2023-05-07T05:30:42;14.93;;;7.90;;
1993;SDS011;998;49.906;10.908;2023-05-07T05:33:09;10.30;;;7.33;;
1993;SDS011;998;49.906;10.908;2023-05-07T05:35:37;10.30;;;8.30;;
1993;SDS011;998;49.906;10.908;2023-05-07T05:38:04;9.03;;;6.77;;
1993;SDS011;998;49.906;10.908;2023-05-07T05:40:31;16.43;;;6.97;;
1993;SDS011;998;49.906;10.908;2023-05-07T05:43:00;12.97;;;9.13;;
1993;SDS011;998;49.906;10.908;2023-05-07T05:45:27;10.30;;;9.07;;
1993;SDS011;998;49.906;10.908;2023-05-07T05:47:55;8.70;;;7.40;;
1993;SDS011;998;49.906;10.908;2023-05-07T05:50:23;9.27;;;8.03;;
1993;SDS011;998;49.906;10.908;2023-05-07T05:52:50;10.17;;;7.37;;
1993;SDS011;998;49.906;10.908;2023-05-07T05:55:18;9.23;;;8.00;;
1993;SDS011;998;49.906;10.908;2023-05-07T05:57:45;8.50;;;7.60;;
1993;SDS011;998;49.906;10.908;2023-05-07T06:00:14;11.00;;;8.50;;
1993;SDS011;998;49.906;10.908;2023-05-07T06:02:42;9.53;;;7.03;;
1993;SDS011;998;49.906;10.908;2023-05-07T06:05:10;9.83;;;7.97;;
1993;SDS011;998;49.906;10.908;2023-05-07T06:07:37;12.67;;;8.53;;
1993;SDS011;998;49.906;10.908;2023-05-07T06:10:05;9.90;;;6.60;;
1993;SDS011;998;49.906;10.908;2023-05-07T06:12:33;7.60;;;6.47;;
1993;SDS011;998;49.906;10.908;2023-05-07T06:15:00;10.37;;;7.47;;
1993;SDS011;998;49.906;10.908;2023-05-07T06:17:29;9.47;;;6.30;;
1993;SDS011;998;49.906;10.908;2023-05-07T06:19:57;7.00;;;5.70;;
1993;SDS011;998;49.906;10.908;2023-05-07T06:22:24;7.23;;;6.30;;
1993;SDS011;998;49.906;10.908;2023-05-07T06:24:51;8.57;;;7.00;;
1993;SDS011;998;49.906;10.908;2023-05-07T06:27:19;7.97;;;6.80;;
1993;SDS011;998;49.906;10.908;2023-05-07T06:29:47;18.37;;;6.53;;
1993;SDS011;998;49.906;10.908;2023-05-07T06:32:15;9.10;;;7.43;;
1993;SDS011;998;49.906;10.908;2023-05-07T06:34:43;8.00;;;6.00;;
1993;SDS011;998;49.906;10.908;2023-05-07T06:37:11;7.63;;;5.70;;
1993;SDS011;998;49.906;10.908;2023-05-07T06:39:38;10.37;;;6.80;;
1993;SDS011;998;49.906;10.908;2023-05-07T06:42:05;8.83;;;6.50;;
1993;SDS011;998;49.906;10.908;2023-05-07T06:44:33;9.30;;;7.03;;
1993;SDS011;998;49.906;10.908;2023-05-07T06:47:00;10.17;;;7.80;;
1993;SDS011;998;49.906;10.908;2023-05-07T06:49:27;8.30;;;5.70;;
1993;SDS011;998;49.906;10.908;2023-05-07T06:51:56;7.33;;;5.70;;
1993;SDS011;998;49.906;10.908;2023-05-07T06:54:24;8.27;;;6.03;;
1993;SDS011;998;49.906;10.908;2023-05-07T06:56:51;9.90;;;7.80;;
1993;SDS011;998;49.906;10.908;2023-05-07T06:59:18;10.13;;;8.50;;
1993;SDS011;998;49.906;10.908;2023-05-07T07:01:46;11.20;;;7.27;;
1993;SDS011;998;49.906;10.908;2023-05-07T07:04:13;9.80;;;7.33;;
1993;SDS011;998;49.906;10.908;2023-05-07T07:06:40;10.67;;;6.80;;
1993;SDS011;998;49.906;10.908;2023-05-07T07:09:09;9.17;;;6.80;;
1993;SDS011;998;49.906;10.908;2023-05-07T07:11:37;9.90;;;6.60;;
1993;SDS011;998;49.906;10.908;2023-05-07T07:14:04;8.23;;;7.13;;
1993;SDS011;998;49.906;10.908;2023-05-07T07:16:32;9.37;;;7.33;;
1993;SDS011;998;49.906;10.908;2023-05-07T07:18:59;7.10;;;5.73;;
1993;SDS011;998;49.906;10.908;2023-05-07T07:21:26;9.77;;;7.60;;
1993;SDS011;998;49.906;10.908;2023-05-07T07:23:53;7.90;;;6.50;;
1993;SDS011;998;49.906;10.908;2023-05-07T07:26:29;8.20;;;6.40;;
1993;SDS011;998;49.906;10.908;2023-05-07T07:29:10;7.30;;;6.10;;
1993;SDS011;998;49.906;10.908;2023-05-07T07:31:38;6.83;;;5.47;;
1993;SDS011;998;49.906;10.908;2023-05-07T07:34:05;7.70;;;6.13;;
1993;SDS011;998;49.906;10.908;2023-05-07T07:36:32;6.37;;;5.67;;
1993;SDS011;998;49.906;10.908;2023-05-07T07:38:59;7.37;;;5.23;;
1993;SDS011;998;49.906;10.908;2023-05-07T07:41:28;6.93;;;4.67;;
1993;SDS011;998;49.906;10.908;2023-05-07T07:43:55;8.47;;;5.23;;
1993;SDS011;998;49.906;10.908;2023-05-07T07:46:22;7.37;;;6.10;;
1993;SDS011;998;49.906;10.908;2023-05-07T07:48:49;7.50;;;5.97;;
1993;SDS011;998;49.906;10.908;2023-05-07T07:51:16;8.43;;;5.80;;
1993;SDS011;998;49.906;10.908;2023-05-07T07:53:44;6.30;;;5.40;;
1993;SDS011;998;49.906;10.908;2023-05-07T07:56:11;8.10;;;5.73;;
1993;SDS011;998;49.906;10.908;2023-05-07T07:58:40;10.10;;;5.80;;
1993;SDS011;998;49.906;10.908;2023-05-07T08:01:07;7.00;;;6.00;;
1993;SDS011;998;49.906;10.908;2023-05-07T08:03:34;6.87;;;6.17;;
1993;SDS011;998;49.906;10.908;2023-05-07T08:06:01;5.97;;;5.37;;
1993;SDS011;998;49.906;10.908;2023-05-07T08:08:28;6.50;;;5.40;;
1993;SDS011;998;49.906;10.908;2023-05-07T08:10:56;6.60;;;5.53;;
1993;SDS011;998;49.906;10.908;2023-05-07T08:13:23;7.83;;;5.50;;
1993;SDS011;998;49.906;10.908;2023-05-07T08:15:52;6.37;;;5.70;;
1993;SDS011;998;49.906;10.908;2023-05-07T08:18:19;7.00;;;6.00;;
1993;SDS011;998;49.906;10.908;2023-05-07T08:20:48;8.03;;;5.70;;
1993;SDS011;998;49.906;10.908;2023-05-07T08:23:15;6.80;;;5.30;;
1993;SDS011;998;49.906;10.908;2023-05-07T08:25:43;7.23;;;5.67;;
1993;SDS011;998;49.906;10.908;2023-05-07T08:28:10;8.53;;;5.50;;
1993;SDS011;998;49.906;10.908;2023-05-07T08:30:39;6.00;;;5.17;;
1993;SDS011;998;49.906;10.908;2023-05-07T08:33:09;6.50;;;5.30;;
1993;SDS011;998;49.906;10.908;2023-05-07T08:35:37;6.57;;;5.30;;
1993;SDS011;998;49.906;10.908;2023-05-07T08:38:04;8.03;;;5.80;;
1993;SDS011;998;49.906;10.908;2023-05-07T08:40:32;7.60;;;5.23;;
1993;SDS011;998;49.906;10.908;2023-05-07T08:43:04;8.80;;;5.80;;
1993;SDS011;998;49.906;10.908;2023-05-07T08:45:32;8.10;;;5.90;;
1993;SDS011;998;49.906;10.908;2023-05-07T08:48:01;8.37;;;6.50;;
1993;SDS011;998;49.906;10.908;2023-05-07T08:50:30;7.83;;;5.60;;
1993;SDS011;998;49.906;10.908;2023-05-07T08:52:57;10.43;;;7.70;;
1993;SDS011;998;49.906;10.908;2023-05-07T08:55:25;8.23;;;5.67;;
1993;SDS011;998;49.906;10.908;2023-05-07T08:57:52;9.30;;;5.23;;
1993;SDS011;998;49.906;10.908;2023-05-07T09:00:19;6.10;;;5.30;;
1993;SDS011;998;49.906;10.908;2023-05-07T09:02:47;11.10;;;7.30;;
1993;SDS011;998;49.906;10.908;2023-05-07T09:05:14;5.97;;;5.37;;
1993;SDS011;998;49.906;10.908;2023-05-07T09:07:42;6.53;;;5.33;;
1993;SDS011;998;49.906;10.908;2023-05-07T09:10:09;10.93;;;7.00;;
1993;SDS011;998;49.906;10.908;2023-05-07T09:12:36;8.20;;;5.83;;
1993;SDS011;998;49.906;10.908;2023-05-07T09:15:04;6.87;;;5.10;;
1993;SDS011;998;49.906;10.908;2023-05-07T09:17:33;8.37;;;6.00;;
1993;SDS011;998;49.906;10.908;2023-05-07T09:20:02;6.60;;;5.43;;
1993;SDS011;998;49.906;10.908;2023-05-07T09:22:31;7.50;;;5.10;;
1993;SDS011;998;49.906;10.908;2023-05-07T09:25:00;5.93;;;4.97;;
1993;SDS011;998;49.906;10.908;2023-05-07T09:27:28;8.63;;;6.73;;
1993;SDS011;998;49.906;10.908;2023-05-07T09:29:56;9.27;;;5.70;;
1993;SDS011;998;49.906;10.908;2023-05-07T09:32:24;6.87;;;5.70;;
1993;SDS011;998;49.906;10.908;2023-05-07T09:34:52;5.93;;;5.33;;
1993;SDS011;998;49.906;10.908;2023-05-07T09:37:19;7.37;;;5.77;;
1993;SDS011;998;49.906;10.908;2023-05-07T09:39:47;8.13;;;5.37;;
1993;SDS011;998;49.906;10.908;2023-05-07T09:42:22;5.27;;;4.67;;
1993;SDS011;998;49.906;10.908;2023-05-07T09:44:50;7.10;;;5.83;;
1993;SDS011;998;49.906;10.908;2023-05-07T09:47:18;5.80;;;4.93;;
1993;SDS011;998;49.906;10.908;2023-05-07T09:49:47;8.40;;;5.97;;
1993;SDS011;998;49.906;10.908;2023-05-07T09:52:15;6.93;;;5.40;;
1993;SDS011;998;49.906;10.908;2023-05-07T09:54:43;7.60;;;5.87;;
1993;SDS011;998;49.906;10.908;2023-05-07T09:57:13;6.50;;;5.30;;
1993;SDS011;998;49.906;10.908;2023-05-07T09:59:43;6.23;;;4.70;;
1993;SDS011;998;49.906;10.908;2023-05-07T10:02:11;8.07;;;4.90;;
1993;SDS011;998;49.906;10.908;2023-05-07T10:04:41;6.47;;;5.37;;
1993;SDS011;998;49.906;10.908;2023-05-07T10:07:08;8.93;;;5.60;;
1993;SDS011;998;49.906;10.908;2023-05-07T10:09:36;10.70;;;8.30;;
1993;SDS011;998;49.906;10.908;2023-05-07T10:12:07;6.43;;;5.13;;
1993;SDS011;998;49.906;10.908;2023-05-07T10:14:35;10.10;;;6.90;;
1993;SDS011;998;49.906;10.908;2023-05-07T10:17:05;14.90;;;8.23;;
1993;SDS011;998;49.906;10.908;2023-05-07T10:19:33;8.77;;;6.40;;
1993;SDS011;998;49.906;10.908;2023-05-07T10:22:03;7.80;;;6.17;;
1993;SDS011;998;49.906;10.908;2023-05-07T10:24:32;9.43;;;6.63;;
1993;SDS011;998;49.906;10.908;2023-05-07T10:27:00;5.43;;;4.30;;
1993;SDS011;998;49.906;10.908;2023-05-07T10:29:33;7.07;;;5.50;;
1993;SDS011;998;49.906;10.908;2023-05-07T10:32:26;7.23;;;4.57;;
1993;SDS011;998;49.906;10.908;2023-05-07T10:35:00;5.63;;;4.63;;
1993;SDS011;998;49.906;10.908;2023-05-07T10:37:31;6.33;;;4.10;;
1993;SDS011;998;49.906;10.908;2023-05-07T10:39:59;6.23;;;3.80;;
1993;SDS011;998;49.906;10.908;2023-05-07T10:42:27;5.67;;;4.43;;
1993;SDS011;998;49.906;10.908;2023-05-07T10:44:54;5.53;;;4.13;;
1993;SDS011;998;49.906;10.908;2023-05-07T10:47:23;6.23;;;4.67;;
1993;SDS011;998;49.906;10.908;2023-05-07T10:55:50;4.20;;;3.30;;
1993;SDS011;998;49.906;10.908;2023-05-07T10:58:24;8.60;;;4.57;;
1993;SDS011;998;49.906;10.908;2023-05-07T11:00:55;5.30;;;3.80;;
1993;SDS011;998;49.906;10.908;2023-05-07T11:03:24;6.07;;;4.13;;
1993;SDS011;998;49.906;10.908;2023-05-07T11:06:10;5.70;;;4.10;;
1993;SDS011;998;49.906;10.908;2023-05-07T11:11:45;5.00;;;3.70;;
1993;SDS011;998;49.906;10.908;2023-05-07T11:14:13;7.40;;;3.60;;
1993;SDS011;998;49.906;10.908;2023-05-07T11:16:41;4.30;;;3.43;;
1993;SDS011;998;49.906;10.908;2023-05-07T11:19:12;6.50;;;3.83;;
1993;SDS011;998;49.906;10.908;2023-05-07T11:21:39;6.90;;;3.03;;
1993;SDS011;998;49.906;10.908;2023-05-07T11:24:08;4.60;;;3.50;;
1993;SDS011;998;49.906;10.908;2023-05-07T11:26:43;4.40;;;3.23;;
1993;SDS011;998;49.906;10.908;2023-05-07T11:29:12;4.47;;;3.10;;
1993;SDS011;998;49.906;10.908;2023-05-07T11:31:40;4.70;;;3.47;;
1993;SDS011;998;49.906;10.908;2023-05-07T11:34:07;4.63;;;2.87;;
1993;SDS011;998;49.906;10.908;2023-05-07T11:36:40;4.17;;;3.10;;
1993;SDS011;998;49.906;10.908;2023-05-07T11:39:23;6.70;;;3.53;;
1993;SDS011;998;49.906;10.908;2023-05-07T11:41:51;4.10;;;3.40;;
1993;SDS011;998;49.906;10.908;2023-05-07T11:44:18;4.50;;;3.30;;
1993;SDS011;998;49.906;10.908;2023-05-07T11:46:46;4.40;;;3.47;;
1993;SDS011;998;49.906;10.908;2023-05-07T11:49:13;5.40;;;3.40;;
1993;SDS011;998;49.906;10.908;2023-05-07T11:51:42;7.13;;;3.43;;
1993;SDS011;998;49.906;10.908;2023-05-07T11:54:11;5.00;;;3.90;;
1993;SDS011;998;49.906;10.908;2023-05-07T11:56:43;5.10;;;3.63;;
1993;SDS011;998;49.906;10.908;2023-05-07T11:59:17;7.93;;;4.20;;
1993;SDS011;998;49.906;10.908;2023-05-07T12:01:45;5.60;;;3.73;;
1993;SDS011;998;49.906;10.908;2023-05-07T12:04:13;6.40;;;4.23;;
1993;SDS011;998;49.906;10.908;2023-05-07T12:06:47;4.63;;;3.93;;
1993;SDS011;998;49.906;10.908;2023-05-07T12:09:16;5.33;;;3.50;;
1993;SDS011;998;49.906;10.908;2023-05-07T12:11:45;6.60;;;4.30;;
1993;SDS011;998;49.906;10.908;2023-05-07T12:14:13;4.67;;;3.40;;
1993;SDS011;998;49.906;10.908;2023-05-07T12:16:41;5.43;;;3.90;;
1993;SDS011;998;49.906;10.908;2023-05-07T12:19:09;4.40;;;3.83;;
1993;SDS011;998;49.906;10.908;2023-05-07T12:21:37;5.43;;;3.87;;
1993;SDS011;998;49.906;10.908;2023-05-07T12:24:07;5.97;;;4.47;;
1993;SDS011;998;49.906;10.908;2023-05-07T12:26:37;5.93;;;4.03;;
1993;SDS011;998;49.906;10.908;2023-05-07T12:29:05;6.10;;;4.10;;
1993;SDS011;998;49.906;10.908;2023-05-07T12:31:33;5.00;;;3.70;;
1993;SDS011;998;49.906;10.908;2023-05-07T12:34:00;13.67;;;4.30;;
1993;SDS011;998;49.906;10.908;2023-05-07T12:36:36;5.73;;;4.40;;
1993;SDS011;998;49.906;10.908;2023-05-07T12:39:04;7.63;;;4.70;;
1993;SDS011;998;49.906;10.908;2023-05-07T12:41:43;5.23;;;4.67;;
1993;SDS011;998;49.906;10.908;2023-05-07T12:44:21;5.07;;;4.30;;
1993;SDS011;998;49.906;10.908;2023-05-07T12:46:49;8.73;;;4.53;;
1993;SDS011;998;49.906;10.908;2023-05-07T12:49:17;4.70;;;4.07;;
1993;SDS011;998;49.906;10.908;2023-05-07T12:51:46;6.00;;;4.33;;
1993;SDS011;998;49.906;10.908;2023-05-07T12:54:14;4.93;;;3.83;;
1993;SDS011;998;49.906;10.908;2023-05-07T12:57:01;4.70;;;3.90;;
1993;SDS011;998;49.906;10.908;2023-05-07T12:59:32;5.40;;;3.20;;
1993;SDS011;998;49.906;10.908;2023-05-07T13:02:00;7.43;;;4.07;;
1993;SDS011;998;49.906;10.908;2023-05-07T13:04:28;6.30;;;3.90;;
1993;SDS011;998;49.906;10.908;2023-05-07T13:06:55;4.77;;;3.43;;
1993;SDS011;998;49.906;10.908;2023-05-07T13:09:22;5.20;;;4.07;;
1993;SDS011;998;49.906;10.908;2023-05-07T13:11:50;4.80;;;3.53;;
1993;SDS011;998;49.906;10.908;2023-05-07T13:14:19;5.40;;;4.07;;
1993;SDS011;998;49.906;10.908;2023-05-07T13:16:47;6.90;;;3.70;;
1993;SDS011;998;49.906;10.908;2023-05-07T13:19:17;4.57;;;4.00;;
1993;SDS011;998;49.906;10.908;2023-05-07T13:21:45;4.77;;;4.17;;
1993;SDS011;998;49.906;10.908;2023-05-07T13:24:12;6.60;;;3.73;;
1993;SDS011;998;49.906;10.908;2023-05-07T13:26:39;5.53;;;4.20;;
1993;SDS011;998;49.906;10.908;2023-05-07T13:29:07;4.43;;;3.47;;
1993;SDS011;998;49.906;10.908;2023-05-07T13:31:36;5.43;;;3.53;;
1993;SDS011;998;49.906;10.908;2023-05-07T13:34:07;7.37;;;3.07;;
1993;SDS011;998;49.906;10.908;2023-05-07T13:36:35;5.40;;;3.80;;
1993;SDS011;998;49.906;10.908;2023-05-07T13:39:04;8.03;;;3.93;;
1993;SDS011;998;49.906;10.908;2023-05-07T13:41:32;5.10;;;3.70;;
1993;SDS011;998;49.906;10.908;2023-05-07T13:44:00;4.30;;;3.37;;
1993;SDS011;998;49.906;10.908;2023-05-07T13:46:27;5.73;;;4.03;;
1993;SDS011;998;49.906;10.908;2023-05-07T13:48:56;5.03;;;3.30;;
1993;SDS011;998;49.906;10.908;2023-05-07T13:51:24;5.07;;;3.60;;
1993;SDS011;998;49.906;10.908;2023-05-07T13:53:51;4.57;;;3.47;;
1993;SDS011;998;49.906;10.908;2023-05-07T13:56:19;5.23;;;3.80;;
1993;SDS011;998;49.906;10.908;2023-05-07T13:58:46;4.50;;;3.47;;
1993;SDS011;998;49.906;10.908;2023-05-07T14:01:14;4.50;;;3.30;;
1993;SDS011;998;49.906;10.908;2023-05-07T14:03:41;5.53;;;3.47;;
1993;SDS011;998;49.906;10.908;2023-05-07T14:06:10;4.07;;;2.77;;
1993;SDS011;998;49.906;10.908;2023-05-07T14:08:37;4.27;;;3.10;;
1993;SDS011;998;49.906;10.908;2023-05-07T14:11:05;5.07;;;3.20;;
1993;SDS011;998;49.906;10.908;2023-05-07T14:13:32;7.00;;;3.20;;
1993;SDS011;998;49.906;10.908;2023-05-07T14:16:00;5.50;;;3.50;;
1993;SDS011;998;49.906;10.908;2023-05-07T14:18:27;4.40;;;3.23;;
1993;SDS011;998;49.906;10.908;2023-05-07T14:20:55;4.13;;;2.90;;
1993;SDS011;998;49.906;10.908;2023-05-07T14:23:24;3.53;;;2.70;;
1993;SDS011;998;49.906;10.908;2023-05-07T14:25:52;4.20;;;3.03;;
1993;SDS011;998;49.906;10.908;2023-05-07T14:28:19;4.40;;;3.30;;
1993;SDS011;998;49.906;10.908;2023-05-07T14:30:47;4.67;;;2.97;;
1993;SDS011;998;49.906;10.908;2023-05-07T14:33:15;5.00;;;3.27;;
1993;SDS011;998;49.906;10.908;2023-05-07T14:35:42;5.13;;;3.77;;
1993;SDS011;998;49.906;10.908;2023-05-07T14:38:13;4.83;;;3.17;;
1993;SDS011;998;49.906;10.908;2023-05-07T14:40:42;4.30;;;3.47;;
1993;SDS011;998;49.906;10.908;2023-05-07T14:43:09;4.43;;;3.17;;
1993;SDS011;998;49.906;10.908;2023-05-07T14:45:37;5.40;;;3.87;;
1993;SDS011;998;49.906;10.908;2023-05-07T14:48:04;4.00;;;2.77;;
1993;SDS011;998;49.906;10.908;2023-05-07T14:50:32;3.87;;;3.27;;
1993;SDS011;998;49.906;10.908;2023-05-07T14:52:59;4.03;;;2.83;;
1993;SDS011;998;49.906;10.908;2023-05-07T14:55:27;5.37;;;3.60;;
1993;SDS011;998;49.906;10.908;2023-05-07T14:57:56;5.83;;;3.20;;
1993;SDS011;998;49.906;10.908;2023-05-07T15:00:24;4.13;;;2.70;;
1993;SDS011;998;49.906;10.908;2023-05-07T15:02:51;7.83;;;4.17;;
1993;SDS011;998;49.906;10.908;2023-05-07T15:05:19;27.63;;;4.80;;
1993;SDS011;998;49.906;10.908;2023-05-07T15:07:46;5.90;;;3.20;;
1993;SDS011;998;49.906;10.908;2023-05-07T15:10:13;4.23;;;2.93;;
1993;SDS011;998;49.906;10.908;2023-05-07T15:12:41;3.83;;;3.20;;
1993;SDS011;998;49.906;10.908;2023-05-07T15:15:10;5.90;;;2.30;;
1993;SDS011;998;49.906;10.908;2023-05-07T15:17:38;4.70;;;2.83;;
1993;SDS011;998;49.906;10.908;2023-05-07T15:20:05;6.47;;;3.13;;
1993;SDS011;998;49.906;10.908;2023-05-07T15:22:33;3.97;;;2.70;;
1993;SDS011;998;49.906;10.908;2023-05-07T15:25:02;13.00;;;3.23;;
1993;SDS011;998;49.906;10.908;2023-05-07T15:27:30;3.80;;;2.63;;